Create Custom Reports and Graphics: Custom Report

North/Central Map

Map

15 Minute Data

South County Map

Map

15 Minute Data

Northern Sonoma County Latest

15 Stations

15 Minute Data | America/Los_Angeles
as of 9/26/21 6:53 PM PDT
Station Date Time Temp (°F) RH (%) Dew Pt (°F) Wind Spd (mph) Wind Dir (°) Wind Gust (mph) Latest Rain (In) Daily Rain (In) Daily Min Temp (°F) Daily Max Temp (°F)
Rockpile Lower (Cooley) 9/26/21 1830 68.5   4.3 52   7 50.1   0.3 4.5 W | 277 13.3   5.0 0.00 0.00 51.0   1.8 83.1   2.5
Rockpile Upper (Cooley) 9/26/21 1845 62.4   5.5 62   11 49.4   0.0 10.5 NW | 311 15.6   3.9 0.00 0.00 47.6   0.2 78.7   4.8
Cloverdale-East (Ranch 83) 9/26/21 1845 70.8   1.7 50   1 51.5   0.8 5.0 S | 170 11.6   5.0 0.00 0.00 55.4   5.3 82.8   4.2
Cloverdale-SE (Ranch 38) 9/26/21 1845 68.8   1.7 54   2 51.7   0.4 9.6 SSE | 167 15.8   2.4 0.00 0.00 53.7   1.4 80.7   3.9
Geyserville-North (Hoffman) 9/26/21 1830 69.9   0.8 53   0 51.8   0.5 3.5 SSE | 158 7.5   2.5 0.00 0.00 55.6   1.6 79.0   3.4
Geyserville (Ranch 3) 9/26/21 1845 68.7   0.7 55   1 51.7   0.3 3.2 SE | 136 8.2   0.9 0.00 0.00 56.1   1.7 79.8   2.9
Geyserville-East (Ranch 40) 9/26/21 1845 66.0   1.0 60   1 51.7   0.6 10.1 SSE | 161 16.3   2.9 0.00 0.00 52.9   0.8 79.3   2.4
Geyserville-South (Nervo Station) 9/26/21 1845 65.8   0.7 59   1 51.0   0.2 4.5 S | 185 7.8   4.0 0.00 0.00 55.0   1.4 78.5   3.0
Lytton (River Oaks) 9/26/21 1845 67.3   1.1 56   2 51.3   0.1 3.8 SSE | 149 7.3   1.4 0.00 0.00 55.8   1.8 81.4   2.5
Jimtown-North (Piccolo-R15) 9/26/21 1845 67.4   0.5 52   0 49.2   0.5 2.7 ESE | 123 7.5   1.3 0.00 0.00 55.5   1.0 80.1   3.5
Jimtown-NE (Red Fan) 9/26/21 1845 67.2   0.8 57   0 51.6   0.7 5.8 SSE | 148 11.0   0.3 0.00 0.00 56.0   1.5 80.3   2.0
HWY 128/Chalk Hill Rd (Landslide) 9/26/21 1845 65.7   2.0 61   3 51.7   0.6 4.2 S | 176 10.4   2.2 0.00 0.00 55.6   1.2 79.1   2.5
Knights Valley (Bavarian Lion) 9/26/21 1845 64.8   5.5 60   9 50.7   0.9 4.3 WSW | 247 8.6   4.5 0.00 0.00 54.5   5.9 79.8   3.8
Upper Dry Creek Valley 9/26/21 1845 67.7   0.4 56   2 51.6   1.2 4.2 SE | 141 8.8   1.6 0.00 0.00 56.3   1.9 80.6   2.5
Lower Dry Creek Valley 9/26/21 1845 65.8   0.1 60   3 51.5   1.3 6.7 SE | 134 10.6   3.8 0.00 0.00 56.4   2.4 78.1   2.1
Max     70.8 62 51.8 10.5 - 16.3 0.00 0.00 56.4 83.1
Avg     67.1 57 51.1 5.5 - 10.7 0.00 - - -
Min     62.4 50 49.2 2.7 - 7.3 0.00 0.00 47.6 78.1

Central Sonoma County Latest

29 Stations

15 Minute Data | America/Los_Angeles
as of 9/26/21 6:53 PM PDT
Station Date Time Temp (°F) RH (%) Dew Pt (°F) Wind Spd (mph) Wind Dir (°) Wind Gust (mph) Latest Rain (In) Daily Rain (In) Daily Min Temp (°F) Daily Max Temp (°F)
Healdsburg-South (Sodini) 9/26/21 1845 66.0   1.8 58   6 50.9   1.1 5.1 SSE | 159 9.1   2.3 0.00 0.00 55.0   0.6 79.4   1.4
Windsor-NW (Ranch 8) 9/26/21 1845 65.4   1.3 64   5 53.2   0.9 0.1 SE | 136 5.7   0.7 0.00 0.00 55.0   0.9 80.0   0.7
Windsor-East (Ranch 16) 9/26/21 1845 64.5   1.9 62   6 51.4   0.7 4.9 SSE | 150 7.9   1.4 0.00 0.00 55.3   0.5 74.8   2.1
Mark West-North (Ranch 14) 9/26/21 1845 64.4   3.1 60   12 50.4   1.9 2.9 NW | 326 6.9   1.6 0.00 0.00 55.5   0.5 76.8   0.2
Windsor-SE (Silk Rd) 9/26/21 1845 64.8   2.3 62   10 51.5   1.8 3.2 SSW | 201 6.4   4.0 0.00 0.00 55.2   0.8 75.3   1.2
Fulton-NW (Ranch 5) 9/26/21 1845 64.9   3.5 61   14 51.0   2.1 5.4 SSE | 150 8.6   3.6 0.00 0.00 55.6   0.6 75.0   0.9
Windsor-South (Laughlin Rd) 9/26/21 1845 63.6   2.8 - - - - - 0.00 0.00 55.4   0.8 76.8   0.1
Fulton-SE (Barnes Rd) 9/26/21 1845 64.1   2.6 64   9 51.6   1.1 4.3 SW | 225 8.3   0.4 0.00 0.00 55.5   0.6 73.2   1.2
Fulton-SW (Ranch 21) 9/26/21 1845 63.4   3.6 62   14 50.4   2.0 3.6 S | 187 6.7   2.9 0.00 0.00 55.5   0.6 75.1   0.7
Santa Rosa-NW (Goldfields) 9/26/21 1845 64.1   3.9 62   14 51.0   1.9 3.7 SSE | 157 7.7   3.1 0.00 0.00 55.8   0.6 74.8   0.3
NW Santa Rosa (Piner Road) 9/26/21 1845 63.1   3.4 66   12 51.5   1.4 2.3 SSW | 195 6.2   1.4 0.00 0.00 55.6   0.7 72.9   0.6
River Rd South (Denner Ranch) 9/26/21 1845 63.7   3.5 61   14 50.2   2.4 4.2 S | 182 6.6   5.5 0.00 0.00 54.1   1.0 75.0   1.2
West Santa Rosa (Hawk's Roost) 9/26/21 1845 63.9   2.9 62   11 50.9   1.7 2.9 SSW | 194 6.7   1.3 0.00 0.00 55.0   0.1 74.6   0.0
Guerneville Rd (Prokopakis) 9/26/21 1845 63.4   2.9 65   12 51.3   2.0 - - - 0.00 0.00 53.8   1.5 74.7   0.2
Guerneville Rd West (Balletto) 9/26/21 1845 63.2   3.5 66   12 51.8   1.2 2.5 SSW | 192 5.1   4.3 0.00 0.00 52.5   2.8 73.9   0.5
Guerneville Rd East (Rich Ranch) 9/26/21 1845 63.5   3.5 63   12 50.8   1.5 - - - - - 55.6   0.6 75.1   0.4
Occidental Rd (Sebastopol) 9/26/21 1845 61.9   3.3 78   20 55.0   3.1 2.9 SW | 223 8.6   1.3 0.00 0.00 52.8   2.2 73.2   0.8
Lower Westside Rd (Ranch 12) 9/26/21 1845 64.8   0.6 61   2 51.2   0.4 1.8 S | 190 5.7   0.9 0.00 0.00 53.6   0.6 77.3   1.1
Guerneville (Laughlin Rd) 9/26/21 1845 59.8   1.6 75   5 51.9   0.2 0.5 NW | 313 2.1   4.8 0.00 0.00 56.2   1.6 71.4   5.6
Korbel (Winery) 9/26/21 1845 62.4   3.5 69   9 52.2   0.0 2.2 ESE | 102 4.1   4.3 0.00 0.00 56.5   1.3 71.5   7.4
Forestville (Shone Farms) 9/26/21 1845 63.4   0.3 66   0 51.8   0.3 3.6 SSW | 212 8.7   0.9 0.00 0.00 54.2   0.9 77.4   0.4
Forestville-NE (Ranch 30) 9/26/21 1845 62.6   0.5 69   1 52.3   0.1 4.7 SW | 222 8.9   0.8 0.00 0.00 55.5   1.9 76.6   0.9
Green Valley Vineyard 9/26/21 1845 61.2   0.3 70   0 51.4   0.3 4.2 WSW | 244 10.1   3.3 0.00 0.00 48.8   0.2 72.6   3.8
Graton-West (Dutton Ranch) 9/26/21 1845 61.1   1.5 70   11 51.3   2.5 2.1 SSW | 196 6.4   1.1 0.00 0.00 46.3   2.7 76.5   1.0
Graton-South (Mill Station Rd) 9/26/21 1845 61.2   2.9 70   10 51.6   0.8 3.2 WSW | 251 9.2   0.8 0.00 0.00 49.2   5.6 69.1   1.3
Occidental (Horseshoe Bend) 9/26/21 1845 57.0   1.9 82   7 51.6   0.4 - - - - - 52.0   0.8 68.5   1.6
Sexton Valley (Jacqueline's Blk) 9/26/21 1845 60.9   3.2 74   10 52.4   0.4 1.5 SW | 230 5.8   0.4 0.00 0.00 53.2   1.9 69.9   1.1
Sebastopol Hills (Burnside Rd) 9/26/21 1845 58.9   3.1 79   10 52.3   0.3 5.1 SW | 234 8.6   5.2 0.00 0.00 53.9   0.8 67.0   0.1
Seaview/Fort Ross (Hirsch) 9/26/21 1845 53.5   1.8 89   7 50.3   0.3 3.0 NW | 314 6.1   3.1 0.00 0.00 49.1   0.3 62.6   0.8
Max     66.0 89 55.0 5.4 - 10.1 0.00 0.00 56.5 80.0
Avg     62.6 68 51.5 3.2 - 7.0 0.00 - - -
Min     53.5 58 50.2 0.1 - 2.1 0.00 0.00 46.3 62.6

Southern Sonoma County Latest

17 Stations

15 Minute Data | America/Los_Angeles
as of 9/26/21 6:53 PM PDT
Station Date Time Temp (°F) RH (%) Dew Pt (°F) Wind Spd (mph) Wind Dir (°) Wind Gust (mph) Latest Rain (In) Daily Rain (In) Daily Min Temp (°F) Daily Max Temp (°F)
Upper Rincon Valley 9/26/21 1845 57.8   0.3 76   2 50.5   0.9 1.5 S | 178 5.7   1.2 0.00 0.00 51.0   0.2 70.9   2.8
Lower Bennett Valley 9/26/21 1845 59.1   0.4 74   2 50.7   1.1 3.0 SE | 141 7.2   0.7 0.00 0.00 54.4   0.7 71.6   5.4
Kenwood (Kunde) 9/26/21 1830 60.7   5.2 76   13 52.9   0.0 2.5 WSW | 241 13.5   3.7 0.00 0.00 54.9   0.5 72.9   6.7
Sonoma Valley (Bedrock) 9/26/21 1845 60.6   3.5 64   6 48.4   0.7 3.6 N | 354 8.4   4.0 0.00 0.00 49.4   4.4 75.0   5.2
Sonoma-West (Arnold) 9/23/21 0415 43.4   8.8 88   20 40.1   1.7 0.3 WNW | 301 1.1   0.5 0.00 0.00 42.7   8.9 47.3   9.3
Sonoma Valley HS 9/26/21 1845 60.9   4.2 70   8 51.1   0.5 5.1 WSW | 245 12.4   4.8 0.00 0.00 56.9   5.1 72.4   6.8
Sonoma East (Bundschu01) 9/26/21 1845 61.6   3.1 68   5 50.8   0.7 6.2 W | 260 14.7   8.6 0.00 0.00 57.0   7.9 73.4   6.3
Schellville (Sasaki) 9/26/21 1845 61.2   1.2 68   1 50.7   1.6 3.9 WSW | 254 10.5   1.7 0.00 0.00 57.9   4.4 75.1   6.9
Sonoma-SE (Napoli) 9/26/21 1845 62.3   2.4 64   3 50.2   1.1 6.4 W | 263 14.5   6.4 0.00 0.00 57.0   7.0 73.5   7.2
Carneros (Ranch 71) 9/26/21 1845 60.1   1.5 70   0 50.5   1.3 14.0 W | 271 19.6   0.1 0.00 0.00 56.0   2.7 70.7   7.2
Carneros Upper (Ranch 81) 9/26/21 1845 60.3   1.8 68   1 49.9   1.3 19.7 W | 260 27.1   7.6 - - 56.0   3.1 72.2   5.9
Carneros Lower (Ranch 81) 9/26/21 1845 59.9   2.6 73   3 51.2   1.5 1.8 SW | 228 8.4   1.9 0.00 0.00 56.4   2.9 75.4   2.4
Rohnert Park-West (Stony Point) 9/26/21 1845 60.3   2.1 75   8 52.4   0.7 5.9 SW | 233 13.1   1.7 0.00 0.00 55.7   0.2 68.9   1.5
Penngrove (Asellus) 9/26/21 1845 60.0   1.5 74   7 51.7   1.0 3.3 SW | 224 9.6   2.1 0.00 0.00 56.1   0.7 67.7   4.7
Roger's Creek (Ranch 50) 9/26/21 1845 57.8   0.2 76   5 50.2   1.7 12.9 W | 266 21.9   6.7 0.00 0.00 53.8   1.5 67.5   5.6
Petaluma (Ranch 10) 9/26/21 1845 61.0   0.3 68   5 50.4   1.8 4.6 W | 278 10.2   2.5 0.00 0.00 57.3   1.1 71.3   4.8
Lakeville (Ranch 47) 9/26/21 1845 60.9   1.7 66   2 49.4   2.2 12.8 NW | 321 17.8   1.8 0.00 0.00 57.4   5.0 72.9   1.8
Max     62.3 76 52.9 19.7 - 27.1 0.00 0.00 57.9 75.4
Avg     60.3 71 50.7 6.7 - 13.4 0.00 - - -
Min     57.8 64 48.4 1.5 - 5.7 0.00 0.00 49.4 67.5

Latest Observations

Map

Hourly Data